TimeCEST,TemperatureF,Dew PointF,Humidity,Sea Level PressureIn,VisibilityMPH,Wind Direction,Wind SpeedMPH,Gust SpeedMPH,PrecipitationIn,Events,Conditions,WindDirDegrees,DateUTC
12:00 AM,62.6,46.4,55,30.09,-9999.0,ESE,6.9,-,N/A,,Clear,110,2013-08-16 22:00:00
12:30 AM,59.0,46.4,63,30.09,-9999.0,ESE,6.9,-,N/A,,Clear,120,2013-08-16 22:30:00
1:00 AM,59.0,46.4,63,30.09,-9999.0,SSE,6.9,-,N/A,,Clear,150,2013-08-16 23:00:00
1:30 AM,57.2,48.2,72,30.09,-9999.0,SSE,5.8,-,N/A,,Clear,160,2013-08-16 23:30:00
2:00 AM,58,46,55,30.09,31,South,4.5,,,,,180,2013-08-17 00:00:00
2:00 AM,59.0,46.4,63,30.09,-9999.0,South,4.6,-,N/A,,Clear,180,2013-08-17 00:00:00
2:30 AM,59.0,44.6,59,30.09,-9999.0,South,5.8,-,N/A,,Clear,180,2013-08-17 00:30:00
3:00 AM,57.2,44.6,63,30.06,-9999.0,South,5.8,-,N/A,,Clear,180,2013-08-17 01:00:00
3:30 AM,59.0,44.6,59,30.06,-9999.0,SSE,8.1,-,N/A,,Clear,150,2013-08-17 01:30:00
4:00 AM,59.0,44.6,59,30.06,-9999.0,SE,8.1,-,N/A,,Clear,140,2013-08-17 02:00:00
4:30 AM,57.2,44.6,63,30.06,-9999.0,Variable,2.3,-,N/A,,Clear,0,2013-08-17 02:30:00
5:00 AM,51.8,44.6,76,30.06,-9999.0,South,2.3,-,N/A,,Clear,190,2013-08-17 03:00:00
5:30 AM,55.4,44.6,67,30.06,-9999.0,East,3.5,-,N/A,,Clear,80,2013-08-17 03:30:00
6:00 AM,50.0,42.8,76,30.06,-9999.0,Variable,1.2,-,N/A,,Clear,0,2013-08-17 04:00:00
6:30 AM,50.0,44.6,82,30.06,-9999.0,Variable,1.2,-,N/A,,Clear,0,2013-08-17 04:30:00
7:00 AM,53.6,44.6,72,30.06,-9999.0,Calm,Calm,-,N/A,,Clear,0,2013-08-17 05:00:00
7:30 AM,57.2,48.2,72,30.06,-9999.0,SE,3.5,-,N/A,,Clear,130,2013-08-17 05:30:00
8:00 AM,60,49,56,30.08,31,South,2.2,,,,Clear,170,2013-08-17 06:00:00
8:00 AM,59.0,48.2,67,30.06,-9999.0,SSE,5.8,-,N/A,,Clear,150,2013-08-17 06:00:00
8:30 AM,60.8,50.0,68,30.06,-9999.0,South,3.5,-,N/A,,Clear,170,2013-08-17 06:30:00
9:00 AM,64.4,50.0,59,30.06,-9999.0,SSW,3.5,-,N/A,,Clear,200,2013-08-17 07:00:00
9:30 AM,66.2,48.2,52,30.06,-9999.0,Variable,2.3,-,N/A,,Clear,0,2013-08-17 07:30:00
10:00 AM,69.8,51.8,53,30.06,-9999.0,Variable,2.3,-,N/A,,Clear,0,2013-08-17 08:00:00
10:30 AM,69.8,51.8,53,30.06,-9999.0,Variable,1.2,-,N/A,,Clear,0,2013-08-17 08:30:00
11:00 AM,71.6,51.8,50,30.06,-9999.0,Variable,2.3,-,N/A,,Clear,0,2013-08-17 09:00:00
11:30 AM,73.4,51.8,47,30.06,-9999.0,Variable,1.2,-,N/A,,Clear,0,2013-08-17 09:30:00
12:00 PM,73.4,51.8,47,30.06,-9999.0,Variable,2.3,-,N/A,,Clear,0,2013-08-17 10:00:00
12:30 PM,75.2,51.8,44,30.04,-9999.0,SSE,4.6,-,N/A,,Clear,150,2013-08-17 10:30:00
1:00 PM,77.0,50.0,39,30.04,-9999.0,Variable,2.3,-,N/A,,Clear,0,2013-08-17 11:00:00
1:30 PM,78.8,51.8,39,30.04,-9999.0,Variable,2.3,-,N/A,,Clear,0,2013-08-17 11:30:00
2:00 PM,79,50,26,29.99,25,WSW,6.7,,,,Scattered Clouds,240,2013-08-17 12:00:00
2:00 PM,78.8,48.2,34,30.04,-9999.0,SW,6.9,-,N/A,,Clear,220,2013-08-17 12:00:00
2:30 PM,78.8,51.8,39,30.04,-9999.0,WSW,6.9,-,N/A,,Clear,250,2013-08-17 12:30:00
3:00 PM,80.6,51.8,37,30.04,-9999.0,SW,5.8,-,N/A,,Clear,230,2013-08-17 13:00:00
3:30 PM,80.6,50.0,34,30.04,-9999.0,SW,5.8,-,N/A,,Clear,220,2013-08-17 13:30:00
4:00 PM,80.6,50.0,34,30.01,-9999.0,West,10.4,-,N/A,,Clear,260,2013-08-17 14:00:00
4:30 PM,80.6,48.2,32,30.01,-9999.0,SSE,3.5,-,N/A,,Clear,160,2013-08-17 14:30:00
5:00 PM,80.6,50.0,34,30.01,-9999.0,SW,4.6,-,N/A,,Clear,220,2013-08-17 15:00:00
5:30 PM,80.6,50.0,34,30.01,-9999.0,SW,5.8,-,N/A,,Clear,220,2013-08-17 15:30:00
6:00 PM,82.4,48.2,30,30.01,-9999.0,SW,6.9,-,N/A,,Clear,220,2013-08-17 16:00:00
6:30 PM,80.6,48.2,32,30.01,-9999.0,Variable,2.3,-,N/A,,Clear,0,2013-08-17 16:30:00
7:00 PM,78.8,50.0,36,30.01,-9999.0,South,3.5,-,N/A,,Clear,180,2013-08-17 17:00:00
7:30 PM,77.0,50.0,39,30.01,-9999.0,SSE,4.6,-,N/A,,Clear,160,2013-08-17 17:30:00
8:00 PM,74,49,31,29.97,25,SE,6.7,,,,Scattered Clouds,130,2013-08-17 18:00:00
8:00 PM,73.4,50.0,44,30.01,-9999.0,SE,4.6,-,N/A,,Clear,130,2013-08-17 18:00:00
8:30 PM,73.4,50.0,44,30.01,-9999.0,SE,5.8,-,N/A,,Clear,130,2013-08-17 18:30:00
9:00 PM,71.6,50.0,46,30.01,-9999.0,SE,6.9,-,N/A,,Clear,140,2013-08-17 19:00:00
9:30 PM,71.6,50.0,46,30.01,-9999.0,SSE,6.9,-,N/A,,Clear,160,2013-08-17 19:30:00
10:00 PM,68.0,50.0,52,30.01,-9999.0,SSE,4.6,-,N/A,,Clear,160,2013-08-17 20:00:00
10:30 PM,68.0,50.0,52,30.01,-9999.0,South,5.8,-,N/A,,Clear,170,2013-08-17 20:30:00
11:00 PM,68.0,51.8,56,30.01,-9999.0,South,5.8,-,N/A,,Clear,170,2013-08-17 21:00:00
11:30 PM,68.0,51.8,56,30.01,-9999.0,South,5.8,-,N/A,,Clear,170,2013-08-17 21:30:00